Pagina principale
METAR-TAF:

METAR-TAF

Aeroporti :

Aeroporto di Dakar-Léopold Sedar Senghor

Dakar, Senegal

latitudine: 14-44N, longitudine: 017-30W, altezza: 27 m

Osservazione

Il bollettino è stato emesso 52 minuti fa, alle 11:00 UTC
Vento 10 kt da nord
Temperature 30°C
Umidità 79%
Pressione 1015 hPa
Visibilità 10 km o più
Nubi sparse ad un'altezza di 1300 ft

METAR: GOOY 171100Z 36010KT 9999 SCT013 30/26 Q1015

Ora: 11:52 (11:52 UTC)

Previsione

Il bollettino è stato emesso 22 minuti fa, alle 11:30 UTC
Previsione valida dal 17 alle 12 UTC al 18 alle 18 UTC
Vento 10 kt da nord
Visibilità 10 km o più
Nubi sparse ad un'altezza di 1300 ft

TAF: GOOY 171130Z 1712/1818 36010KT 9999 SCT013

Osservazioni e previsioni meteorologiche di più di 4000 aeroporti (messaggi METAR e TAF).

Le stazioni disponibili sono rappresentate dai dischi gialli e rossi sulla carta.

Puntare il mouse per vedere il nome della stazione.

Clicca sopra per visualizzare le osservazioni e previsioni meteorologiche.

Per cambiare la mappa : fare clic sui pulsanti verdi con una croce nera per ingrandire, il pulsante verde con un trattino per diminuire, o sulla freccia verde per le mappe adiacenti.


METAR-TAF: